Details From YPAD - Adelaide Intl
To YAYE - Ayers Rock (connellan)
Flight Number -
Tags Generated
Created
Modified
Stats Distance 706 nm / 1,307 km
Max Altitude 0 ft / 0 m
Waypoints 3
Social Downloads 2
Likes 0
Share VATSIM

Download

Looking for another format? Having issues loading an existing format? Contact us
Advertisement - Login to hide

Notes

Generated

Route

YPAD AYEEC YAYE

ID Type Via Altitude Latitude Longitude Leg Dist Tot Dist Heading (true) Name
O YPAD APT - 0 ft / 0 m -34.94168˚ 138.54233˚ - 0 nm - -
AYEEC FIX - 0 ft / 0 m -25.38154˚ 131.10034˚ 691 nm 691 nm 324° / 328° -
O YAYE APT - 0 ft / 0 m -25.17811˚ 130.96656˚ 14 nm 705 nm 329° / 329° -

Altitude Profile

Advertisement - Login to hide

Weather


0- 5 10 15 20 25 30 35+ Temperature / ° C

Clouds and Precipitation
Forecast for 2017-12-11 18:00 UTC. Updated 2 hours ago

Ground ~20,000 ft ~40,000 ft Winds

YPAD

Details ICAO YPAD (ADL)
Name Adelaide Intl
Region Australia
Timezone Australia/Adelaide (UTC+10.5)
Stats Elevation 20 ft / 6 m (AMSL)
Location -34.947439° 138.529850°
Runways 2
Magnetic Variation 7.927° E

METAR

YPAD 111630Z 00000KT CAVOK 13/07 Q1015 NOSIG

Decode

TAF

TAF YPAD 111059Z 1112/1218 14008KT CAVOK FM111500 VRB05KT CAVOK FM120100 27008KT CAVOK FM120400 24010KT CAVOK FM121000 10008KT CAVOK FM121400 04010KT CAVOK

Decode

Departure Runways

ID Width Length Bearing (true) Bearing (mag) Surface Threshold Offset Overrun Length
05 151 ft / 46 m 10,173 ft / 3,101 m 50.14° 42.21° Asphalt 518 ft / 158 m 0 ft / 0 m
12 151 ft / 46 m 5,414 ft / 1,650 m 123.61° 115.68° Asphalt 0 ft / 0 m 0 ft / 0 m
23 151 ft / 46 m 10,173 ft / 3,101 m 230.13° 222.20° Asphalt 0 ft / 0 m 203 ft / 62 m
30 151 ft / 46 m 5,414 ft / 1,650 m 303.60° 295.67° Asphalt 0 ft / 0 m 0 ft / 0 m

YAYE

Details ICAO YAYE (AYQ)
Name Ayers Rock
Region Australia
Timezone Australia/Darwin (UTC+9.5)
Stats Elevation 1,625 ft / 495 m (AMSL)
Location -25.185555° 130.976642°
Runways 1
Magnetic Variation 3.931° E

METAR

YAYE 111700Z AUTO 17005KT 9999 // NCD 22/01 Q1012

Decode

TAF

Not found

Destination Runways

ID Width Length Bearing (true) Bearing (mag) Surface Threshold Offset Overrun Length
13 98 ft / 30 m 8,526 ft / 2,599 m 129.70° 125.77° Asphalt 0 ft / 0 m 0 ft / 0 m
31 98 ft / 30 m 8,526 ft / 2,599 m 309.70° 305.77° Asphalt 0 ft / 0 m 0 ft / 0 m

Popular Alternatives